createdAt,value
2018-03-23T00:01:54.196Z,91.00
2018-03-23T00:04:23.192Z,91.10
2018-03-23T00:06:52.188Z,91.20
2018-03-23T00:09:21.176Z,91.30
2018-03-23T00:11:50.160Z,91.60
2018-03-23T00:14:19.161Z,91.30
2018-03-23T00:16:47.734Z,91.20
2018-03-23T00:19:16.035Z,91.50
2018-03-23T00:21:44.248Z,91.50
2018-03-23T00:24:12.476Z,91.70
2018-03-23T00:26:40.689Z,91.80
2018-03-23T00:29:08.916Z,92.00
2018-03-23T00:31:37.131Z,92.10
2018-03-23T00:34:05.368Z,92.20
2018-03-23T00:36:33.588Z,92.00
2018-03-23T00:39:01.819Z,91.50
2018-03-23T00:41:30.036Z,91.50
2018-03-23T00:43:58.631Z,91.20
2018-03-23T00:46:26.832Z,91.20
2018-03-23T00:48:55.823Z,91.40
2018-03-23T00:51:24.053Z,91.40
2018-03-23T00:53:52.272Z,91.40
2018-03-23T00:56:20.479Z,91.60
2018-03-23T00:58:48.708Z,92.00
2018-03-23T01:01:17.712Z,92.00
2018-03-23T01:03:45.932Z,92.00
2018-03-23T01:06:14.168Z,92.00
2018-03-23T01:08:42.382Z,92.00
2018-03-23T01:11:10.620Z,92.10
2018-03-23T01:13:38.839Z,92.30
2018-03-23T01:16:07.084Z,92.20
2018-03-23T01:18:35.295Z,92.30
2018-03-23T01:21:03.531Z,92.40
2018-03-23T01:23:31.746Z,92.70
2018-03-23T01:25:59.984Z,92.40
2018-03-23T01:28:28.200Z,92.40
2018-03-23T01:30:57.200Z,92.20
2018-03-23T01:33:26.192Z,92.00
2018-03-23T01:35:55.183Z,92.10
2018-03-23T01:38:24.176Z,92.10
2018-03-23T01:40:53.172Z,92.00
2018-03-23T01:43:21.388Z,92.00
2018-03-23T01:45:49.615Z,92.00
2018-03-23T01:48:18.595Z,92.00
2018-03-23T01:50:47.604Z,92.20
2018-03-23T01:53:27.573Z,92.20
2018-03-23T01:55:55.811Z,92.10
2018-03-23T01:58:24.800Z,92.40
2018-03-23T02:00:53.801Z,92.40
2018-03-23T02:03:22.800Z,92.40
2018-03-23T02:05:51.036Z,92.40
2018-03-23T02:08:19.468Z,92.40
2018-03-23T02:10:47.704Z,92.50
2018-03-23T02:13:15.921Z,92.50
2018-03-23T02:15:44.157Z,92.40
2018-03-23T02:18:13.148Z,92.40
2018-03-23T02:20:42.147Z,92.40
2018-03-23T02:23:11.161Z,92.60
2018-03-23T02:25:39.372Z,92.60
2018-03-23T02:28:07.604Z,92.50
2018-03-23T02:30:35.828Z,92.50
2018-03-23T02:33:04.069Z,92.60
2018-03-23T02:35:32.314Z,92.70
2018-03-23T02:38:00.549Z,92.80
2018-03-23T02:40:28.768Z,92.90
2018-03-23T02:42:57.016Z,93.00
2018-03-23T02:45:26.012Z,92.90
2018-03-23T02:47:55.012Z,92.90
2018-03-23T02:50:24.002Z,93.00
2018-03-23T02:52:53.007Z,93.10
2018-03-23T02:55:21.550Z,93.10
2018-03-23T02:57:49.768Z,93.20
2018-03-23T03:00:17.989Z,93.30
2018-03-23T03:02:46.225Z,93.30
2018-03-23T03:05:14.449Z,93.40
2018-03-23T03:07:42.675Z,93.20
2018-03-23T03:10:10.900Z,93.50
2018-03-23T03:12:39.904Z,93.40
2018-03-23T03:15:09.290Z,93.40
2018-03-23T03:17:37.506Z,93.70
2018-03-23T03:20:05.731Z,93.40
2018-03-23T03:22:33.973Z,93.50
2018-03-23T03:25:02.206Z,93.40
2018-03-23T03:27:30.435Z,93.40
2018-03-23T03:29:58.746Z,93.40
2018-03-23T03:32:26.948Z,93.50
2018-03-23T03:34:55.192Z,93.70
2018-03-23T03:37:24.188Z,93.70
2018-03-23T03:39:52.436Z,93.70
2018-03-23T03:42:20.665Z,93.80
2018-03-23T03:44:48.914Z,93.90
2018-03-23T03:47:17.141Z,93.90
2018-03-23T03:49:45.381Z,93.90
2018-03-23T03:52:13.612Z,93.90
2018-03-23T03:54:42.620Z,94.00
2018-03-23T03:57:11.616Z,94.00
2018-03-23T03:59:39.921Z,94.00
2018-03-23T04:02:08.861Z,94.20
2018-03-23T04:04:37.871Z,94.30
2018-03-23T04:07:06.096Z,94.30
2018-03-23T04:09:35.116Z,94.60
2018-03-23T04:12:04.104Z,94.60
2018-03-23T04:14:32.349Z,94.60
2018-03-23T04:17:00.576Z,94.90
2018-03-23T04:19:28.829Z,95.10
2018-03-23T04:21:57.058Z,95.20
2018-03-23T04:24:25.355Z,95.30
2018-03-23T04:26:53.550Z,95.30
2018-03-23T04:29:21.788Z,95.30
2018-03-23T04:31:50.013Z,95.20
2018-03-23T04:34:19.025Z,95.20
2018-03-23T04:36:47.252Z,95.20
2018-03-23T04:39:15.483Z,95.20
2018-03-23T04:41:43.735Z,95.20
2018-03-23T04:44:11.966Z,95.20
2018-03-23T04:46:40.203Z,95.10
2018-03-23T04:49:08.424Z,95.10
2018-03-23T04:51:36.671Z,95.00
2018-03-23T04:54:04.896Z,95.00
2018-03-23T04:56:33.144Z,95.00
2018-03-23T04:59:01.369Z,95.00
2018-03-23T05:01:29.617Z,94.90
2018-03-23T05:03:57.845Z,94.90
2018-03-23T05:06:26.088Z,94.90
2018-03-23T05:08:54.324Z,94.90
2018-03-23T05:11:23.341Z,94.80
2018-03-23T05:13:51.564Z,94.70
2018-03-23T05:16:19.809Z,94.70
2018-03-23T05:18:48.032Z,94.70
2018-03-23T05:21:17.040Z,94.70
2018-03-23T05:23:45.272Z,94.70
2018-03-23T05:26:13.515Z,94.70
2018-03-23T05:28:41.748Z,94.70
2018-03-23T05:31:10.869Z,94.70
2018-03-23T05:33:39.101Z,94.70
2018-03-23T05:36:07.345Z,94.70
2018-03-23T05:38:35.578Z,94.70
2018-03-23T05:41:03.824Z,94.70
2018-03-23T05:43:32.071Z,94.70
2018-03-23T05:46:00.311Z,94.70
2018-03-23T05:48:28.542Z,94.80
2018-03-23T05:50:56.788Z,94.80
2018-03-23T05:53:25.020Z,94.80
2018-03-23T05:55:53.253Z,94.90
2018-03-23T05:58:21.497Z,94.80
2018-03-23T06:00:49.720Z,94.70
2018-03-23T06:03:18.728Z,94.70
2018-03-23T06:05:47.724Z,94.80
2018-03-23T06:08:15.968Z,94.80
2018-03-23T06:10:44.203Z,94.70
2018-03-23T06:13:12.444Z,94.80
2018-03-23T06:15:40.673Z,94.80
2018-03-23T06:18:08.917Z,94.90
2018-03-23T06:20:37.352Z,95.20
2018-03-23T06:23:06.361Z,95.20
2018-03-23T06:25:34.588Z,94.90
2018-03-23T06:28:02.888Z,95.00
2018-03-23T06:30:31.064Z,94.90
2018-03-23T06:33:00.079Z,94.90
2018-03-23T06:35:28.301Z,94.90
2018-03-23T06:37:56.547Z,94.90
2018-03-23T06:40:24.772Z,94.70
2018-03-23T06:42:53.015Z,94.60
2018-03-23T06:45:21.261Z,94.60
2018-03-23T06:47:49.501Z,94.50
2018-03-23T06:50:18.499Z,94.40
2018-03-23T06:52:47.500Z,94.50
2018-03-23T06:55:15.727Z,94.50
2018-03-23T06:57:43.975Z,94.60
2018-03-23T07:00:12.198Z,94.60
2018-03-23T07:02:40.441Z,94.60
2018-03-23T07:05:08.676Z,94.50
2018-03-23T07:07:36.910Z,94.40
2018-03-23T07:10:05.151Z,94.20
2018-03-23T07:12:33.380Z,94.10
2018-03-23T07:15:02.401Z,94.30
2018-03-23T07:17:30.628Z,94.30
2018-03-23T07:19:59.116Z,94.30
2018-03-23T07:22:28.105Z,94.20
2018-03-23T07:24:57.113Z,94.30
2018-03-23T07:27:25.388Z,94.30
2018-03-23T07:29:53.588Z,94.20
2018-03-23T07:32:21.813Z,94.10
2018-03-23T07:34:50.818Z,94.40
2018-03-23T07:37:19.821Z,94.10
2018-03-23T07:39:48.064Z,94.10
2018-03-23T07:42:16.291Z,94.20
2018-03-23T07:44:44.537Z,94.00
2018-03-23T07:47:12.760Z,93.90
2018-03-23T07:49:41.004Z,93.70
2018-03-23T07:52:09.240Z,93.40
2018-03-23T07:54:38.298Z,93.00
2018-03-23T07:57:06.481Z,93.00
2018-03-23T07:59:34.729Z,93.10
2018-03-23T08:02:02.956Z,93.10
2018-03-23T08:04:31.958Z,93.00
2018-03-23T08:07:00.997Z,93.10
2018-03-23T08:09:29.208Z,93.10
2018-03-23T08:11:58.200Z,93.30
2018-03-23T08:14:27.504Z,93.10
2018-03-23T08:16:55.742Z,93.10
2018-03-23T08:19:23.971Z,93.60
2018-03-23T08:21:52.205Z,93.60
2018-03-23T08:24:20.446Z,93.40
2018-03-23T08:26:48.713Z,93.20
2018-03-23T08:29:16.948Z,93.20
2018-03-23T08:31:45.952Z,93.20
2018-03-23T08:34:14.176Z,93.20
2018-03-23T08:36:42.425Z,92.80
2018-03-23T08:39:10.661Z,92.80
2018-03-23T08:41:39.665Z,92.90
2018-03-23T08:44:07.937Z,92.90
2018-03-23T08:46:36.136Z,92.60
2018-03-23T08:49:04.378Z,92.60
2018-03-23T08:51:33.380Z,92.70
2018-03-23T08:54:01.616Z,92.70
2018-03-23T08:56:29.861Z,92.60
2018-03-23T08:58:58.098Z,92.20
2018-03-23T09:01:26.343Z,92.20
2018-03-23T09:03:54.573Z,92.40
2018-03-23T09:06:22.812Z,92.80
2018-03-23T09:08:51.804Z,92.40
2018-03-23T09:11:20.816Z,92.20
2018-03-23T09:13:49.048Z,92.20
2018-03-23T09:16:17.291Z,92.20
2018-03-23T09:18:45.518Z,92.20
2018-03-23T09:21:14.533Z,92.00
2018-03-23T09:23:42.768Z,92.00
2018-03-23T09:26:11.776Z,92.00
2018-03-23T09:28:40.776Z,91.90
2018-03-23T09:31:09.065Z,92.00
2018-03-23T09:33:37.243Z,91.60
2018-03-23T09:36:05.496Z,91.70
2018-03-23T09:38:33.724Z,91.10
2018-03-23T09:41:01.955Z,91.50
2018-03-23T09:43:30.200Z,91.50
2018-03-23T09:45:59.202Z,91.50
2018-03-23T09:48:28.208Z,91.20
2018-03-23T09:50:56.434Z,91.20
2018-03-23T09:53:24.668Z,91.50
2018-03-23T09:55:52.892Z,91.80
2018-03-23T09:58:23.105Z,91.50
2018-03-23T10:00:51.319Z,90.90
2018-03-23T10:03:19.564Z,90.00
2018-03-23T10:05:47.788Z,90.00
2018-03-23T10:08:16.029Z,88.90
2018-03-23T10:10:44.286Z,89.10
2018-03-23T10:13:13.360Z,90.60
2018-03-23T10:15:42.285Z,90.30
2018-03-23T10:18:10.531Z,90.30
2018-03-23T10:20:38.761Z,90.00
2018-03-23T10:23:07.005Z,90.70
2018-03-23T10:25:36.000Z,87.90
2018-03-23T10:28:04.228Z,87.90
2018-03-23T10:30:32.737Z,90.10
2018-03-23T10:33:00.952Z,89.00
2018-03-23T10:35:29.184Z,87.90
2018-03-23T10:37:57.395Z,86.40
2018-03-23T10:40:25.641Z,86.90
2018-03-23T10:42:54.625Z,86.80
2018-03-23T10:45:23.628Z,86.40
2018-03-23T10:47:52.620Z,88.30
2018-03-23T10:50:20.860Z,88.30
2018-03-23T10:52:49.085Z,89.00
2018-03-23T10:55:17.358Z,88.00
2018-03-23T10:57:45.536Z,88.80
2018-03-23T11:00:14.271Z,88.60
2018-03-23T11:02:48.908Z,88.90
2018-03-23T11:05:17.913Z,89.50
2018-03-23T11:07:47.728Z,90.30
2018-03-23T11:10:15.964Z,90.20
2018-03-23T11:12:44.188Z,90.10
2018-03-23T11:15:12.445Z,89.00
2018-03-23T11:17:40.664Z,88.60
2018-03-23T11:20:08.904Z,88.50
2018-03-23T11:22:37.137Z,89.30
2018-03-23T11:25:05.376Z,88.70
2018-03-23T11:27:33.614Z,89.60
2018-03-23T11:30:01.873Z,89.80
2018-03-23T11:32:30.092Z,89.60
2018-03-23T11:34:58.350Z,89.80
2018-03-23T11:37:26.569Z,90.60
2018-03-23T11:39:54.816Z,90.40
2018-03-23T11:42:23.051Z,91.10
2018-03-23T11:44:52.042Z,90.90
2018-03-23T11:47:21.052Z,91.10
2018-03-23T11:49:49.278Z,91.10
2018-03-23T11:52:18.125Z,91.20
2018-03-23T11:54:46.560Z,90.90
2018-03-23T11:57:15.574Z,90.70
2018-03-23T11:59:43.801Z,90.70
2018-03-23T12:02:12.056Z,91.00
2018-03-23T12:04:40.336Z,91.20
2018-03-23T12:07:08.580Z,91.00
2018-03-23T12:09:36.808Z,91.00
2018-03-23T12:12:05.052Z,91.20
2018-03-23T12:14:33.276Z,91.20
2018-03-23T12:17:02.294Z,90.90
2018-03-23T12:19:30.568Z,90.90
2018-03-23T12:21:58.804Z,90.80
2018-03-23T12:24:27.795Z,90.70
2018-03-23T12:26:56.801Z,91.00
2018-03-23T12:29:25.792Z,90.90
2018-03-23T12:31:54.810Z,91.00
2018-03-23T12:34:23.040Z,91.00
2018-03-23T12:36:52.060Z,91.00
2018-03-23T12:39:20.288Z,90.90
2018-03-23T12:41:48.534Z,91.00
2018-03-23T12:44:16.773Z,91.30
2018-03-23T12:46:45.784Z,91.00
2018-03-23T12:49:14.021Z,91.00
2018-03-23T12:51:42.333Z,91.00
2018-03-23T12:54:10.562Z,91.50
2018-03-23T12:56:38.804Z,90.90
2018-03-23T12:59:07.056Z,91.10
2018-03-23T13:01:35.300Z,91.20
2018-03-23T13:04:04.321Z,91.50
2018-03-23T13:06:32.532Z,91.50
2018-03-23T13:09:00.784Z,91.40
2018-03-23T13:11:29.013Z,91.50
2018-03-23T13:13:58.032Z,91.20
2018-03-23T13:16:26.304Z,91.10
2018-03-23T13:18:54.562Z,91.30
2018-03-23T13:21:23.561Z,91.30
2018-03-23T13:23:51.810Z,91.30
2018-03-23T13:26:20.808Z,91.10
2018-03-23T13:28:49.887Z,91.10
2018-03-23T13:31:18.480Z,91.10
2018-03-23T13:33:46.720Z,91.20
2018-03-23T13:36:14.948Z,91.30
2018-03-23T13:38:43.200Z,91.20
2018-03-23T13:41:12.188Z,91.30
2018-03-23T13:43:41.203Z,91.50
2018-03-23T13:46:09.856Z,91.80
2018-03-23T13:48:38.068Z,91.50
2018-03-23T13:51:06.301Z,91.30
2018-03-23T13:53:34.546Z,91.20
2018-03-23T13:56:02.784Z,91.50
2018-03-23T13:58:36.784Z,91.30
2018-03-23T14:01:05.804Z,91.30
2018-03-23T14:03:34.033Z,91.20
2018-03-23T14:06:03.044Z,91.50
2018-03-23T14:08:31.273Z,91.50
2018-03-23T14:10:59.516Z,91.20
2018-03-23T14:13:27.744Z,90.90
2018-03-23T14:15:56.761Z,90.90
2018-03-23T14:18:24.991Z,90.90
2018-03-23T14:20:53.241Z,90.70
2018-03-23T14:23:21.534Z,90.90
2018-03-23T14:25:49.804Z,91.00
2018-03-23T14:28:18.024Z,91.30
2018-03-23T14:30:47.042Z,91.60
2018-03-23T14:33:15.268Z,91.50
2018-03-23T14:35:44.326Z,91.90
2018-03-23T14:38:12.517Z,91.80
2018-03-23T14:40:40.762Z,91.50
2018-03-23T14:43:08.993Z,91.40
2018-03-23T14:45:38.000Z,91.30
2018-03-23T14:48:06.651Z,91.60
2018-03-23T14:50:34.873Z,90.90
2018-03-23T14:53:03.098Z,90.80
2018-03-23T14:55:31.336Z,90.50
2018-03-23T14:57:59.574Z,90.30
2018-03-23T15:00:28.588Z,90.10
2018-03-23T15:02:56.816Z,90.10
2018-03-23T15:05:25.888Z,90.20
2018-03-23T15:07:54.860Z,90.40
2018-03-23T15:10:23.113Z,90.40
2018-03-23T15:12:51.650Z,90.40
2018-03-23T15:15:19.982Z,90.20
2018-03-23T15:17:48.228Z,91.00
2018-03-23T15:20:16.460Z,90.20
2018-03-23T15:22:44.716Z,90.20
2018-03-23T15:25:12.953Z,90.30
2018-03-23T15:27:41.208Z,89.70
2018-03-23T15:30:10.266Z,89.90
2018-03-23T15:32:38.495Z,89.90
2018-03-23T15:35:06.727Z,90.00
2018-03-23T15:37:34.976Z,90.00
2018-03-23T15:40:03.209Z,88.00
2018-03-23T15:42:31.476Z,88.30
2018-03-23T15:45:00.468Z,86.80
2018-03-23T15:47:29.484Z,85.90
2018-03-23T15:49:57.717Z,85.90
2018-03-23T15:52:26.732Z,86.70
2018-03-23T15:54:54.960Z,85.80
2018-03-23T15:57:23.205Z,86.60
2018-03-23T15:59:51.836Z,86.20
2018-03-23T16:02:20.077Z,86.30
2018-03-23T16:04:48.351Z,84.60
2018-03-23T16:07:16.565Z,85.40
2018-03-23T16:09:45.561Z,85.80
2018-03-23T16:12:14.565Z,85.00
2018-03-23T16:14:42.798Z,84.90
2018-03-23T16:17:11.032Z,85.50
2018-03-23T16:19:39.394Z,86.30
2018-03-23T16:22:08.370Z,85.90
2018-03-23T16:24:37.377Z,85.50
2018-03-23T16:27:05.613Z,85.50
2018-03-23T16:29:33.854Z,85.60
2018-03-23T16:32:02.129Z,86.70
2018-03-23T16:34:31.093Z,86.80
2018-03-23T16:36:59.374Z,86.80
2018-03-23T16:39:28.356Z,87.20
2018-03-23T16:41:56.591Z,87.10
2018-03-23T16:44:25.084Z,86.80
2018-03-23T16:46:53.330Z,86.80
2018-03-23T16:49:21.568Z,87.00
2018-03-23T16:51:50.344Z,87.10
2018-03-23T16:54:18.527Z,87.70
2018-03-23T16:56:46.768Z,88.00
2018-03-23T16:59:15.780Z,88.50
2018-03-23T17:01:44.020Z,88.40
2018-03-23T17:04:12.252Z,88.10
2018-03-23T17:06:40.489Z,88.30
2018-03-23T17:09:10.511Z,89.20
2018-03-23T17:11:39.841Z,89.50
2018-03-23T17:14:08.161Z,89.50
2018-03-23T17:16:36.799Z,89.10
2018-03-23T17:19:06.153Z,89.30
2018-03-23T17:21:34.389Z,89.30
2018-03-23T17:24:02.632Z,89.00
2018-03-23T17:26:30.869Z,89.40
2018-03-23T17:28:59.112Z,89.00
2018-03-23T17:31:28.511Z,90.10
2018-03-23T17:33:56.807Z,89.40
2018-03-23T17:36:25.092Z,89.70
2018-03-23T17:38:54.113Z,89.40
2018-03-23T17:41:22.340Z,89.00
2018-03-23T17:43:50.946Z,89.20
2018-03-23T17:46:19.157Z,89.00
2018-03-23T17:48:47.403Z,88.90
2018-03-23T17:51:16.425Z,88.20
2018-03-23T17:53:44.655Z,88.10
2018-03-23T17:56:13.673Z,87.90
2018-03-23T17:58:41.917Z,87.90
2018-03-23T18:01:10.144Z,88.40
2018-03-23T18:03:38.368Z,89.00
2018-03-23T18:06:07.381Z,89.40
2018-03-23T18:08:35.613Z,89.40
2018-03-23T18:11:03.860Z,89.70
2018-03-23T18:13:32.108Z,90.00
2018-03-23T18:16:01.109Z,90.00
2018-03-23T18:18:29.338Z,90.00
2018-03-23T18:20:57.589Z,90.10
2018-03-23T18:23:26.582Z,90.40
2018-03-23T18:25:54.839Z,90.70
2018-03-23T18:28:23.420Z,90.70
2018-03-23T18:30:51.723Z,90.70
2018-03-23T18:33:19.961Z,90.40
2018-03-23T18:35:48.244Z,90.50
2018-03-23T18:38:16.486Z,90.50
2018-03-23T18:40:45.492Z,90.90
2018-03-23T18:43:13.725Z,90.90
2018-03-23T18:45:41.960Z,90.80
2018-03-23T18:48:12.480Z,90.70
2018-03-23T18:50:40.705Z,90.80
2018-03-23T18:53:09.721Z,90.70
2018-03-23T18:55:37.964Z,90.70
2018-03-23T18:58:06.208Z,90.90
2018-03-23T19:00:34.469Z,91.00
2018-03-23T19:03:02.713Z,91.00
2018-03-23T19:05:30.954Z,91.10
2018-03-23T19:07:59.191Z,91.00
2018-03-23T19:10:27.505Z,91.10
2018-03-23T19:12:55.739Z,91.10
2018-03-23T19:15:24.044Z,91.20
2018-03-23T19:17:53.041Z,91.00
2018-03-23T19:20:21.263Z,91.10
2018-03-23T19:22:49.644Z,91.00
2018-03-23T19:25:17.888Z,91.00
2018-03-23T19:27:47.892Z,91.30
2018-03-23T19:30:16.900Z,91.60
2018-03-23T19:32:45.912Z,91.30
2018-03-23T19:35:14.153Z,91.30
2018-03-23T19:37:43.152Z,91.30
2018-03-23T19:40:12.162Z,91.30
2018-03-23T19:42:40.380Z,91.30
2018-03-23T19:45:08.633Z,91.30
2018-03-23T19:47:36.877Z,91.30
2018-03-23T19:50:05.125Z,91.40
2018-03-23T19:52:33.347Z,91.60
2018-03-23T19:55:01.601Z,91.70
2018-03-23T19:57:29.835Z,91.70
2018-03-23T19:59:58.085Z,91.80
2018-03-23T20:02:26.320Z,91.80
2018-03-23T20:04:54.569Z,91.80
2018-03-23T20:07:22.810Z,91.80
2018-03-23T20:09:51.056Z,91.90
2018-03-23T20:12:19.508Z,91.90
2018-03-23T20:14:47.791Z,91.90
2018-03-23T20:20:22.564Z,91.80
2018-03-23T20:22:50.811Z,91.90
2018-03-23T20:25:19.841Z,91.90
2018-03-23T20:27:53.675Z,91.90
2018-03-23T20:30:21.926Z,91.90
2018-03-23T20:32:50.162Z,92.00
2018-03-23T20:35:18.422Z,92.00
2018-03-23T20:37:47.428Z,92.00
2018-03-23T20:40:15.681Z,92.00
2018-03-23T20:42:45.161Z,92.10
2018-03-23T20:45:13.373Z,92.10
2018-03-23T20:47:41.639Z,92.00
2018-03-23T20:50:10.637Z,92.10
2018-03-23T20:52:38.888Z,92.10
2018-03-23T20:55:07.120Z,92.20
2018-03-23T20:57:35.364Z,92.10
2018-03-23T21:00:03.592Z,92.20
2018-03-23T21:02:31.836Z,92.20
2018-03-23T21:05:00.065Z,92.30
2018-03-23T21:07:29.077Z,92.20
2018-03-23T21:09:57.317Z,92.30
2018-03-23T21:12:25.561Z,92.20
2018-03-23T21:14:53.802Z,91.90
2018-03-23T21:17:22.055Z,92.30
2018-03-23T21:19:51.056Z,92.50
2018-03-23T21:22:19.307Z,92.50
2018-03-23T21:24:48.316Z,92.90
2018-03-23T21:27:17.328Z,92.50
2018-03-23T21:29:45.573Z,92.60
2018-03-23T21:32:14.564Z,92.80
2018-03-23T21:34:43.581Z,92.60
2018-03-23T21:37:11.814Z,92.60
2018-03-23T21:39:40.160Z,92.50
2018-03-23T21:42:08.400Z,92.60
2018-03-23T21:44:36.660Z,92.60
2018-03-23T21:47:04.916Z,92.60
2018-03-23T21:49:33.160Z,92.50
2018-03-23T21:52:02.156Z,91.20
2018-03-23T21:54:30.441Z,91.10
2018-03-23T21:56:58.660Z,90.40
2018-03-23T21:59:26.924Z,90.60
2018-03-23T22:01:55.924Z,90.60
2018-03-23T22:04:24.152Z,90.60
2018-03-23T22:06:52.405Z,90.50
2018-03-23T22:09:20.632Z,90.60
2018-03-23T22:11:49.641Z,90.40
2018-03-23T22:14:17.877Z,90.30
2018-03-23T22:16:46.117Z,90.30
2018-03-23T22:19:14.348Z,90.10
2018-03-23T22:21:43.363Z,90.10
2018-03-23T22:24:11.599Z,90.10
2018-03-23T22:26:39.840Z,90.10
2018-03-23T22:29:08.069Z,90.20
2018-03-23T22:31:36.356Z,90.60
2018-03-23T22:34:05.012Z,90.20
2018-03-23T22:36:33.252Z,90.40
2018-03-23T22:39:01.487Z,90.70
2018-03-23T22:41:29.732Z,91.00
2018-03-23T22:43:58.780Z,90.90
2018-03-23T22:46:27.737Z,91.10
2018-03-23T22:48:56.298Z,91.10
2018-03-23T22:51:24.519Z,91.30
2018-03-23T22:53:52.765Z,91.40
2018-03-23T22:56:20.988Z,91.50
2018-03-23T22:58:49.248Z,91.50
2018-03-23T23:01:17.480Z,91.50
2018-03-23T23:03:46.496Z,91.70
2018-03-23T23:06:14.720Z,91.80
2018-03-23T23:08:42.956Z,91.70
2018-03-23T23:11:11.187Z,91.70
2018-03-23T23:13:40.201Z,91.60
2018-03-23T23:16:08.436Z,91.60
2018-03-23T23:18:36.681Z,91.80
2018-03-23T23:21:04.904Z,91.80
2018-03-23T23:23:33.165Z,91.80
2018-03-23T23:26:02.165Z,92.00
2018-03-23T23:28:31.168Z,92.00
2018-03-23T23:30:59.412Z,92.00
2018-03-23T23:33:27.654Z,92.00
2018-03-23T23:35:56.673Z,91.90
2018-03-23T23:38:24.900Z,91.90
2018-03-23T23:40:53.153Z,92.10
2018-03-23T23:43:21.385Z,92.10
2018-03-23T23:45:49.627Z,92.00
2018-03-23T23:48:17.854Z,92.00
2018-03-23T23:50:46.867Z,92.20
2018-03-23T23:53:15.098Z,92.20
2018-03-23T23:55:43.345Z,92.20
2018-03-23T23:58:11.580Z,92.30
